Latest Weather Observations for Yanco

IDN60801

Issued at 11:05 pm EST Thursday 24 April 2014 (issued every 30 minutes, with the page automatically refreshed every 10 minutes)

About weather observations | Map of weather stations | Latest weather observations for NSW | Other Formats
Station Details ID: 074037 Name: YANCO AGRICULTURAL INSTITUTE Lat: -34.62 Lon: 146.43 Height: 164.0 m
Data from the previous 72 hours. | See also: Recent months at Yanco
Date/Time
EST
Temp
°C
App
Temp
°C
Dew
Point
Rel
Hum
%
Delta-T
°C
Wind Press
QNH
hPa
Press
MSL
hPa
Rain
since 9 am
mm
Dir
 
Spd
km/h
Gust
km/h
Spd
kts
Gust
kts
24/11:00pm 13.0 11.2 9.3 78 1.9 SE 9 15 5 8 - - 0.0
24/10:30pm 13.3 11.1 9.5 78 2.0 SSE 11 15 6 8 - - 0.0
24/10:00pm 13.8 11.3 9.6 76 2.2 SSE 13 15 7 8 - - 0.0
24/09:30pm 13.9 11.7 9.5 75 2.3 SSE 11 17 6 9 - - 0.0
24/09:00pm 14.6 12.1 9.8 73 2.5 S 13 19 7 10 - - 0.0
24/08:30pm 14.6 12.8 9.6 72 2.6 SSE 9 15 5 8 - - 0.0
24/08:00pm 15.7 13.2 9.8 68 3.1 S 13 17 7 9 - - 0.0
24/07:30pm 16.0 13.9 9.7 66 3.3 S 11 13 6 7 - - 0.0
24/07:00pm 16.4 14.6 9.3 63 3.7 S 9 9 5 5 - - 0.0
24/06:30pm 16.4 14.4 8.6 60 4.0 S 9 9 5 5 - - 0.0
24/06:00pm 17.4 15.7 8.3 55 4.7 SSW 7 9 4 5 - - 0.0
24/05:30pm 17.6 15.5 8.2 54 4.8 SSW 9 11 5 6 - - 0.0
24/05:00pm 20.0 17.5 8.0 46 6.3 S 11 15 6 8 - - 0.0
24/04:30pm 21.2 18.3 6.3 38 7.6 SSW 11 17 6 9 - - 0.0
24/04:00pm 21.6 18.2 5.9 36 7.9 SW 13 19 7 10 - - 0.0
24/03:30pm 21.9 18.1 5.8 35 8.1 SW 15 33 8 18 - - 0.0
24/03:00pm 21.9 18.6 6.2 36 8.0 SSW 13 22 7 12 - - 0.0
24/02:30pm 21.8 17.5 5.3 34 8.3 SSW 17 28 9 15 - - 0.0
24/02:00pm 21.9 17.7 5.8 35 8.1 SW 17 26 9 14 - - 0.0
24/01:30pm 21.9 18.4 7.3 39 7.6 SW 15 28 8 15 - - 0.0
24/01:00pm 21.5 17.0 6.2 37 7.8 SW 19 26 10 14 - - 0.0
24/12:30pm 21.3 17.2 6.4 38 7.6 SW 17 28 9 15 - - 0.0
24/12:00pm 21.3 17.2 6.4 38 7.6 SSW 17 30 9 16 - - 0.0
24/11:30am 21.1 16.7 6.6 39 7.4 SW 19 30 10 16 - - 0.0
24/11:00am 20.6 16.8 7.6 43 6.7 WSW 17 24 9 13 - - 0.0
24/10:30am 19.8 16.0 7.5 45 6.3 SW 17 24 9 13 - - 0.0
24/10:00am 19.0 14.9 8.6 51 5.4 SW 20 28 11 15 - - 0.0
24/09:30am 18.0 16.1 11.8 67 3.4 SSW 13 20 7 11 - - 0.0
24/09:00am 16.9 16.3 12.2 74 2.6 SSW 7 15 4 8 - - 0.0
24/08:30am 14.4 13.9 11.9 85 1.4 S 6 9 3 5 - - 0.0
24/08:00am 13.5 13.0 12.1 91 0.8 S 6 7 3 4 - - 0.0
24/07:30am 11.5 10.8 11.3 99 0.1 SSW 6 7 3 4 - - 0.0
24/07:00am 11.1 10.2 10.6 97 0.3 SSW 6 9 3 5 - - 0.0
24/06:30am 11.3 10.3 11.0 98 0.2 SSW 7 9 4 5 - - 0.0
24/06:00am 10.9 10.1 9.7 92 0.6 SSW 4 7 2 4 - - 0.0
24/05:30am 13.0 13.4 11.4 90 0.9 CALM 0 0 0 0 - - 0.0
24/05:00am 13.4 13.9 11.5 88 1.0 CALM 0 6 0 3 - - 0.0
24/04:30am 13.4 13.2 11.8 90 0.9 SE 4 6 2 3 - - 0.0
24/04:00am 13.1 13.5 11.3 89 1.0 SE 0 4 0 2 - - 0.0
24/03:30am 13.7 13.5 11.9 89 1.0 SSE 4 7 2 4 - - 0.0
24/03:00am 14.1 13.6 12.0 87 1.1 SE 6 7 3 4 - - 0.0
24/02:30am 14.9 14.4 11.9 82 1.6 SE 6 7 3 4 - - 0.0
24/02:00am 15.2 15.2 12.3 83 1.6 S 4 4 2 2 - - 0.0
24/01:30am 15.1 15.0 12.2 83 1.6 SSW 4 6 2 3 - - 0.0
24/01:00am 14.8 15.5 12.1 84 1.5 CALM 0 0 0 0 - - 0.0
24/12:30am 14.4 14.6 11.9 85 1.4 SSW 2 4 1 2 - - 0.0
24/12:00am 15.4 15.0 12.3 82 1.7 E 6 7 3 4 - - 0.0
 
Date/Time
EST
Temp
°C
App
Temp
°C
Dew
Point
Rel
Hum
%
Delta-T
°C
Wind Press
QNH
hPa
Press
MSL
hPa
Rain
since 9 am
mm
Dir
 
Spd
km/h
Gust
km/h
Spd
kts
Gust
kts
23/11:30pm 15.5 15.0 11.9 79 2.0 E 6 7 3 4 - - 0.0
23/11:00pm 15.9 15.4 12.6 81 1.8 E 7 9 4 5 - - 0.0
23/10:30pm 16.5 16.0 12.5 77 2.2 E 7 7 4 4 - - 0.0
23/10:00pm 16.9 16.4 12.6 76 2.4 ESE 7 9 4 5 - - 0.0
23/09:30pm 16.7 16.2 12.7 77 2.2 SSE 7 9 4 5 - - 0.0
23/09:00pm 16.9 16.4 12.8 77 2.3 S 7 9 4 5 - - 0.0
23/08:30pm 17.7 17.4 13.2 75 2.6 SSE 7 9 4 5 - - 0.0
23/08:00pm 17.8 17.7 13.3 75 2.6 SSE 6 7 3 4 - - 0.0
23/07:30pm 18.2 17.5 13.3 73 2.8 S 9 9 5 5 - - 0.0
23/07:00pm 18.9 18.5 13.1 69 3.3 S 7 9 4 5 - - 0.0
23/06:30pm 19.4 19.0 13.1 67 3.6 S 7 9 4 5 - - 0.0
23/06:00pm 20.3 19.9 12.5 61 4.4 SSW 6 7 3 4 - - 0.0
23/05:30pm 21.2 21.2 12.3 57 5.0 WSW 4 6 2 3 - - 0.0
23/05:00pm 22.1 21.8 12.6 55 5.4 WSW 6 7 3 4 - - 0.0
23/04:30pm 23.2 22.5 11.9 49 6.4 WSW 7 11 4 6 - - 0.0
23/04:00pm 24.1 23.1 12.4 48 6.7 WSW 9 13 5 7 - - 0.0
23/03:30pm 24.4 22.4 11.4 44 7.4 WSW 13 17 7 9 - - 0.0
23/03:00pm 24.7 23.4 11.3 43 7.6 W 9 17 5 9 - - 0.0
23/02:30pm 24.7 22.7 11.6 44 7.5 WSW 13 19 7 10 - - 0.0
23/02:00pm 24.7 22.4 10.6 41 7.9 W 13 20 7 11 - - 0.0
23/01:30pm 24.8 21.6 11.4 43 7.6 WSW 19 22 10 12 - - 0.0
23/01:00pm 24.7 22.3 10.2 40 8.1 NW 13 19 7 10 - - 0.0
23/12:30pm 24.1 22.0 9.7 40 7.9 NNW 11 20 6 11 - - 0.0
23/12:00pm 23.6 21.1 9.6 41 7.7 WNW 13 20 7 11 - - 0.0
23/11:30am 23.1 20.7 10.2 44 7.1 NNW 13 20 7 11 - - 0.0
23/11:00am 21.9 19.2 9.1 44 6.9 N 13 19 7 10 - - 0.0
23/10:30am 21.4 18.2 8.3 43 6.9 N 15 20 8 11 - - 0.0
23/10:00am 20.6 18.3 8.9 47 6.2 N 11 17 6 9 - - 0.0
23/09:30am 19.3 16.4 9.5 53 5.2 N 15 22 8 12 - - 0.0
23/09:00am 17.9 16.1 9.5 58 4.4 NNE 9 13 5 7 - - 0.0
23/08:30am 15.7 13.5 9.4 66 3.3 ENE 11 15 6 8 - - 0.0
23/08:00am 15.8 13.8 8.5 62 3.7 E 9 13 5 7 - - 0.0
23/07:30am 14.5 12.9 7.8 64 3.4 ENE 6 7 3 4 - - 0.0
23/07:00am 14.2 12.3 7.5 64 3.3 NE 7 9 4 5 - - 0.0
23/06:30am 13.5 11.7 7.3 66 3.1 NNE 6 7 3 4 - - 0.0
23/06:00am 14.4 13.0 7.2 62 3.6 N 4 7 2 4 - - 0.0
23/05:30am 14.5 13.1 7.3 62 3.6 N 4 6 2 3 - - 0.0
23/05:00am 14.4 12.4 7.2 62 3.6 N 7 9 4 5 - - 0.0
23/04:30am 14.3 12.3 7.1 62 3.5 N 7 11 4 6 - - 0.0
23/04:00am 14.9 12.9 7.2 60 3.8 N 7 9 4 5 - - 0.0
23/03:30am 15.1 13.1 7.2 59 3.9 NNW 7 11 4 6 - - 0.0
23/03:00am 16.2 13.4 6.9 54 4.6 N 11 19 6 10 - - 0.0
23/02:30am 15.5 12.8 7.3 58 4.1 N 11 17 6 9 - - 0.0
23/02:00am 14.9 12.7 7.7 62 3.6 N 9 11 5 6 - - 0.0
23/01:30am 14.8 13.1 7.6 62 3.6 N 6 7 3 4 - - 0.0
23/01:00am 15.3 13.4 7.6 60 3.9 N 7 9 4 5 - - 0.0
23/12:30am 15.6 13.8 7.9 60 3.9 N 7 13 4 7 - - 0.0
23/12:00am 15.9 13.6 7.4 57 4.3 NNW 9 13 5 7 - - 0.0
 
Date/Time
EST
Temp
°C
App
Temp
°C
Dew
Point
Rel
Hum
%
Delta-T
°C
Wind Press
QNH
hPa
Press
MSL
hPa
Rain
since 9 am
mm
Dir
 
Spd
km/h
Gust
km/h
Spd
kts
Gust
kts
22/11:30pm 17.5 14.0 7.3 51 5.2 N 15 19 8 10 - - 0.0
22/11:00pm 17.7 14.6 7.4 51 5.2 N 13 19 7 10 - - 0.0
22/10:30pm 18.1 14.6 7.2 49 5.5 NNE 15 20 8 11 - - 0.0
22/10:00pm 17.6 15.3 7.6 52 5.1 NNE 9 17 5 9 - - 0.0
22/09:30pm 17.3 15.7 7.9 54 4.8 NNE 6 13 3 7 - - 0.0
22/09:00pm 17.8 15.9 7.5 51 5.2 NNE 7 11 4 6 - - 0.0
22/08:30pm 19.2 15.4 7.6 47 6.0 NNE 17 22 9 12 - - 0.0
22/08:00pm 19.6 15.4 7.4 45 6.3 NNE 19 24 10 13 - - 0.0
22/07:30pm 19.8 16.1 7.9 46 6.2 NE 17 24 9 13 - - 0.0
22/07:00pm 20.1 16.4 7.8 45 6.4 NNE 17 22 9 12 - - 0.0
22/06:30pm 20.6 17.0 8.3 45 6.5 NNE 17 22 9 12 - - 0.0
22/06:00pm 21.0 18.2 8.6 45 6.6 NE 13 19 7 10 - - 0.0
22/05:30pm 21.1 18.9 9.4 47 6.3 NNE 11 15 6 8 - - 0.0
22/05:00pm 23.5 21.4 8.4 38 8.1 N 9 13 5 7 - - 0.0
22/04:30pm 24.4 21.9 8.4 36 8.6 N 11 19 6 10 - - 0.0
22/04:00pm 25.0 23.2 8.1 34 9.1 NW 7 15 4 8 - - 0.0
22/03:30pm 24.9 22.2 7.5 33 9.2 NNW 11 17 6 9 - - 0.0
22/03:00pm 24.9 22.6 7.5 33 9.2 NNW 9 15 5 8 - - 0.0
22/02:30pm 24.6 21.6 7.7 34 9.0 N 13 22 7 12 - - 0.0
22/02:00pm 23.6 20.6 7.7 36 8.4 N 13 20 7 11 - - 0.0
22/01:30pm 24.8 22.7 8.3 35 8.9 NNW 9 17 5 9 - - 0.0
22/01:00pm 24.5 23.0 10.4 41 7.9 NNW 9 19 5 10 - - 0.0
22/12:30pm 23.3 19.9 9.0 40 7.7 NNW 17 24 9 13 - - 0.0
22/12:00pm 23.2 20.7 9.6 42 7.4 NNW 13 22 7 12 - - 0.0
22/11:30am 21.7 18.9 8.6 43 7.0 N 13 20 7 11 - - 0.0
22/11:00am 20.8 17.6 8.4 45 6.5 N 15 20 8 11 - - 0.0
22/10:30am 20.6 17.4 8.6 46 6.3 N 15 22 8 12 - - 0.0
22/10:00am 19.5 16.7 8.5 49 5.8 N 13 19 7 10 - - 0.0
22/09:30am 18.5 15.7 8.7 53 5.1 N 13 19 7 10 - - 0.0
22/09:00am 16.8 15.0 8.0 56 4.5 N 7 11 4 6 - - 0.0
22/08:30am 15.2 12.8 7.0 58 4.1 NE 9 13 5 7 - - 0.0
22/08:00am 14.1 12.2 6.7 61 3.6 NE 6 9 3 5 - - 0.0
22/07:30am 12.9 10.8 6.0 63 3.3 NNE 6 7 3 4 - - 0.0
22/07:00am 11.6 9.4 5.5 66 2.8 NNE 6 7 3 4 - - 0.0
22/06:30am 11.2 9.0 5.5 68 2.7 NE 6 7 3 4 - - 0.0
22/06:00am 12.0 9.8 5.4 64 3.1 NE 6 7 3 4 - - 0.0
22/05:30am 12.8 10.5 5.5 61 3.4 NE 7 9 4 5 - - 0.0
22/05:00am 12.2 9.4 5.1 62 3.3 NE 9 13 5 7 - - 0.0
22/04:30am 12.8 9.7 5.5 61 3.4 NNE 11 15 6 8 - - 0.0
22/04:00am 12.8 9.8 5.9 63 3.3 NNE 11 15 6 8 - - 0.0
22/03:30am 12.0 9.9 5.6 65 3.0 NNE 6 7 3 4 - - 0.0
22/03:00am 12.2 10.1 6.0 66 2.9 NE 6 7 3 4 - - 0.0
22/02:30am 12.2 10.1 5.8 65 3.0 NNE 6 9 3 5 - - 0.0
22/02:00am 12.4 10.2 6.0 65 3.0 N 7 11 4 6 - - 0.0
22/01:30am 12.3 10.2 5.7 64 3.1 N 6 7 3 4 - - 0.0
22/01:00am 14.2 11.1 5.6 56 4.1 NE 11 17 6 9 - - 0.0
22/12:30am 14.7 11.2 5.5 54 4.4 NE 13 19 7 10 - - 0.0
22/12:00am 14.9 11.3 5.1 52 4.7 NE 13 17 7 9 - - 0.0
 
Date/Time
EST
Temp
°C
App
Temp
°C
Dew
Point
Rel
Hum
%
Delta-T
°C
Wind Press
QNH
hPa
Press
MSL
hPa
Rain
since 9 am
mm
Dir
 
Spd
km/h
Gust
km/h
Spd
kts
Gust
kts
21/11:30pm 13.6 10.9 5.7 59 3.8 NE 9 11 5 6 - - 0.0

Other Formats:

Comma delimited format used in spreadsheet applications
http://www.bom.gov.au/fwo/IDN60801/IDN60801.95705.axf

JavaScript Object Notation format (JSON) in row-major order
http://www.bom.gov.au/fwo/IDN60801/IDN60801.95705.json